sensor_id;sensor_type;location;lat;lon;timestamp;pressure;altitude;pressure_sealevel;temperature;humidity
35655;BME280;21773;50.010;19.972;2023-05-09T00:02:36;99824.56;;;10.26;53.87
35655;BME280;21773;50.010;19.972;2023-05-09T00:05:40;99822.06;;;10.25;53.82
35655;BME280;21773;50.010;19.972;2023-05-09T00:08:43;99817.72;;;10.24;53.90
35655;BME280;21773;50.010;19.972;2023-05-09T00:11:48;99822.91;;;10.25;53.98
35655;BME280;21773;50.010;19.972;2023-05-09T00:14:51;99821.25;;;10.24;54.20
35655;BME280;21773;50.010;19.972;2023-05-09T00:17:55;99816.69;;;10.25;53.78
35655;BME280;21773;50.010;19.972;2023-05-09T00:20:58;99815.00;;;10.24;53.97
35655;BME280;21773;50.010;19.972;2023-05-09T00:24:04;99808.97;;;10.22;53.81
35655;BME280;21773;50.010;19.972;2023-05-09T00:27:09;99811.44;;;10.17;54.00
35655;BME280;21773;50.010;19.972;2023-05-09T00:30:12;99804.31;;;10.09;53.79
35655;BME280;21773;50.010;19.972;2023-05-09T00:33:16;99807.16;;;10.01;54.19
35655;BME280;21773;50.010;19.972;2023-05-09T00:36:19;99810.03;;;9.99;54.02
35655;BME280;21773;50.010;19.972;2023-05-09T00:39:23;99806.91;;;9.96;54.27
35655;BME280;21773;50.010;19.972;2023-05-09T00:42:28;99807.50;;;9.91;54.21
35655;BME280;21773;50.010;19.972;2023-05-09T00:45:31;99785.56;;;9.73;54.18
35655;BME280;21773;50.010;19.972;2023-05-09T00:48:34;99802.81;;;9.79;54.72
35655;BME280;21773;50.010;19.972;2023-05-09T00:51:39;99792.81;;;9.73;54.91
35655;BME280;21773;50.010;19.972;2023-05-09T00:54:42;99797.41;;;9.72;54.74
35655;BME280;21773;50.010;19.972;2023-05-09T00:57:47;99798.41;;;9.71;54.92
35655;BME280;21773;50.010;19.972;2023-05-09T01:00:51;99800.47;;;9.69;54.70
35655;BME280;21773;50.010;19.972;2023-05-09T01:03:54;99797.31;;;9.66;54.63
35655;BME280;21773;50.010;19.972;2023-05-09T01:07:03;99801.63;;;9.60;54.71
35655;BME280;21773;50.010;19.972;2023-05-09T01:10:13;99797.06;;;9.61;54.74
35655;BME280;21773;50.010;19.972;2023-05-09T01:13:24;99783.59;;;9.61;54.78
35655;BME280;21773;50.010;19.972;2023-05-09T01:16:33;99795.25;;;9.68;55.09
35655;BME280;21773;50.010;19.972;2023-05-09T01:20:00;99790.09;;;9.66;54.91
35655;BME280;21773;50.010;19.972;2023-05-09T01:23:40;99791.34;;;9.70;55.17
35655;BME280;21773;50.010;19.972;2023-05-09T01:27:13;99787.19;;;9.68;55.20
35655;BME280;21773;50.010;19.972;2023-05-09T01:30:19;99790.28;;;9.65;55.25
35655;BME280;21773;50.010;19.972;2023-05-09T01:33:25;99770.59;;;9.64;55.05
35655;BME280;21773;50.010;19.972;2023-05-09T01:36:31;99770.59;;;9.64;54.94
35655;BME280;21773;50.010;19.972;2023-05-09T01:39:37;99779.56;;;9.50;55.69
35655;BME280;21773;50.010;19.972;2023-05-09T01:42:43;99779.19;;;9.53;55.67
35655;BME280;21773;50.010;19.972;2023-05-09T01:45:50;99781.75;;;9.40;56.04
35655;BME280;21773;50.010;19.972;2023-05-09T01:48:55;99770.53;;;9.36;55.65
35655;BME280;21773;50.010;19.972;2023-05-09T01:52:01;99781.31;;;9.36;56.07
35655;BME280;21773;50.010;19.972;2023-05-09T01:55:07;99777.59;;;9.37;55.99
35655;BME280;21773;50.010;19.972;2023-05-09T01:58:11;99773.16;;;9.30;56.16
35655;BME280;21773;50.010;19.972;2023-05-09T02:01:17;99780.91;;;9.39;55.91
35655;BME280;21773;50.010;19.972;2023-05-09T02:04:21;99758.00;;;9.22;56.32
35655;BME280;21773;50.010;19.972;2023-05-09T02:07:27;99774.84;;;9.31;56.25
35655;BME280;21773;50.010;19.972;2023-05-09T02:10:31;99770.69;;;9.28;56.07
35655;BME280;21773;50.010;19.972;2023-05-09T02:13:35;99769.38;;;9.24;56.16
35655;BME280;21773;50.010;19.972;2023-05-09T02:16:41;99771.88;;;9.26;55.99
35655;BME280;21773;50.010;19.972;2023-05-09T02:19:44;99773.91;;;9.24;56.30
35655;BME280;21773;50.010;19.972;2023-05-09T02:22:49;99770.78;;;9.20;56.00
35655;BME280;21773;50.010;19.972;2023-05-09T02:25:53;99763.13;;;9.17;56.13
35655;BME280;21773;50.010;19.972;2023-05-09T02:28:57;99766.63;;;9.18;56.07
35655;BME280;21773;50.010;19.972;2023-05-09T02:32:03;99766.38;;;9.12;56.21
35655;BME280;21773;50.010;19.972;2023-05-09T02:35:09;99766.75;;;9.09;56.33
35655;BME280;21773;50.010;19.972;2023-05-09T02:38:14;99760.53;;;9.09;56.31
35655;BME280;21773;50.010;19.972;2023-05-09T02:41:18;99750.06;;;8.99;56.62
35655;BME280;21773;50.010;19.972;2023-05-09T02:44:24;99761.34;;;9.09;56.61
35655;BME280;21773;50.010;19.972;2023-05-09T02:47:29;99762.97;;;9.04;56.83
35655;BME280;21773;50.010;19.972;2023-05-09T02:50:32;99755.09;;;9.02;56.77
35655;BME280;21773;50.010;19.972;2023-05-09T02:53:36;99758.53;;;8.96;57.28
35655;BME280;21773;50.010;19.972;2023-05-09T02:56:39;99758.72;;;8.95;57.21
35655;BME280;21773;50.010;19.972;2023-05-09T02:59:42;99758.53;;;8.96;57.20
35655;BME280;21773;50.010;19.972;2023-05-09T03:02:48;99764.75;;;8.97;57.24
35655;BME280;21773;50.010;19.972;2023-05-09T03:05:51;99759.50;;;8.89;57.35
35655;BME280;21773;50.010;19.972;2023-05-09T03:08:55;99767.56;;;8.89;57.24
35655;BME280;21773;50.010;19.972;2023-05-09T03:11:59;99762.75;;;8.84;57.63
35655;BME280;21773;50.010;19.972;2023-05-09T03:15:04;99766.72;;;8.88;57.26
35655;BME280;21773;50.010;19.972;2023-05-09T03:18:09;99762.75;;;8.84;57.47
35655;BME280;21773;50.010;19.972;2023-05-09T03:21:12;99755.75;;;8.90;57.42
35655;BME280;21773;50.010;19.972;2023-05-09T03:24:16;99758.66;;;8.88;57.39
35655;BME280;21773;50.010;19.972;2023-05-09T03:27:19;99758.66;;;8.88;57.43
35655;BME280;21773;50.010;19.972;2023-05-09T03:30:24;99758.66;;;8.88;57.70
35655;BME280;21773;50.010;19.972;2023-05-09T03:33:30;99757.88;;;8.94;57.19
35655;BME280;21773;50.010;19.972;2023-05-09T03:36:35;99773.13;;;8.87;57.47
35655;BME280;21773;50.010;19.972;2023-05-09T03:39:39;99767.31;;;8.84;57.51
35655;BME280;21773;50.010;19.972;2023-05-09T03:42:42;99770.56;;;8.79;57.60
35655;BME280;21773;50.010;19.972;2023-05-09T03:45:46;99766.28;;;8.70;58.25
35655;BME280;21773;50.010;19.972;2023-05-09T03:48:50;99758.31;;;8.77;57.73
35655;BME280;21773;50.010;19.972;2023-05-09T03:51:54;99775.53;;;8.82;57.82
35655;BME280;21773;50.010;19.972;2023-05-09T03:54:59;99777.41;;;8.82;58.00
35655;BME280;21773;50.010;19.972;2023-05-09T03:58:06;99776.25;;;8.91;57.41
35655;BME280;21773;50.010;19.972;2023-05-09T04:01:12;99770.97;;;8.97;57.67
35655;BME280;21773;50.010;19.972;2023-05-09T04:04:17;99771.84;;;9.04;57.43
35655;BME280;21773;50.010;19.972;2023-05-09T04:07:21;99765.91;;;9.09;57.37
35655;BME280;21773;50.010;19.972;2023-05-09T04:10:25;99769.50;;;9.16;57.08
35655;BME280;21773;50.010;19.972;2023-05-09T04:13:29;99764.38;;;9.21;56.88
35655;BME280;21773;50.010;19.972;2023-05-09T04:16:37;99770.16;;;9.18;57.04
35655;BME280;21773;50.010;19.972;2023-05-09T04:19:42;99771.56;;;9.35;56.77
35655;BME280;21773;50.010;19.972;2023-05-09T04:22:45;99773.25;;;9.36;56.57
35655;BME280;21773;50.010;19.972;2023-05-09T04:25:50;99760.47;;;9.45;56.56
35655;BME280;21773;50.010;19.972;2023-05-09T04:28:55;99769.31;;;9.60;56.39
35655;BME280;21773;50.010;19.972;2023-05-09T04:31:58;99770.84;;;9.69;56.12
35655;BME280;21773;50.010;19.972;2023-05-09T04:35:05;99764.38;;;9.64;55.93
35655;BME280;21773;50.010;19.972;2023-05-09T04:38:13;99774.75;;;9.67;55.90
35655;BME280;21773;50.010;19.972;2023-05-09T04:41:17;99752.63;;;9.71;55.90
35655;BME280;21773;50.010;19.972;2023-05-09T04:44:21;99761.66;;;9.85;55.52
35655;BME280;21773;50.010;19.972;2023-05-09T04:47:25;99769.44;;;10.01;55.45
35655;BME280;21773;50.010;19.972;2023-05-09T04:50:30;99773.44;;;10.12;55.09
35655;BME280;21773;50.010;19.972;2023-05-09T04:53:34;99774.25;;;10.12;55.14
35655;BME280;21773;50.010;19.972;2023-05-09T04:56:37;99771.91;;;10.24;55.09
35655;BME280;21773;50.010;19.972;2023-05-09T04:59:41;99771.38;;;10.41;54.35
35655;BME280;21773;50.010;19.972;2023-05-09T05:02:46;99769.13;;;10.52;54.42
35655;BME280;21773;50.010;19.972;2023-05-09T05:05:51;99772.13;;;10.63;54.20
35655;BME280;21773;50.010;19.972;2023-05-09T05:08:55;99769.88;;;10.73;54.09
35655;BME280;21773;50.010;19.972;2023-05-09T05:11:58;99768.66;;;10.82;53.48
35655;BME280;21773;50.010;19.972;2023-05-09T05:15:06;99769.06;;;10.79;53.83
35655;BME280;21773;50.010;19.972;2023-05-09T05:18:10;99762.69;;;11.00;53.52
35655;BME280;21773;50.010;19.972;2023-05-09T05:21:15;99758.19;;;11.14;53.44
35655;BME280;21773;50.010;19.972;2023-05-09T05:24:19;99767.78;;;11.36;53.02
35655;BME280;21773;50.010;19.972;2023-05-09T05:27:22;99766.13;;;11.48;53.04
35655;BME280;21773;50.010;19.972;2023-05-09T05:30:26;99750.34;;;11.65;52.61
35655;BME280;21773;50.010;19.972;2023-05-09T05:33:30;99760.97;;;11.80;52.13
35655;BME280;21773;50.010;19.972;2023-05-09T05:36:35;99762.00;;;12.05;52.01
35655;BME280;21773;50.010;19.972;2023-05-09T05:39:39;99749.72;;;12.15;51.58
35655;BME280;21773;50.010;19.972;2023-05-09T05:42:42;99764.41;;;12.46;51.12
35655;BME280;21773;50.010;19.972;2023-05-09T05:45:48;99754.59;;;12.58;50.89
35655;BME280;21773;50.010;19.972;2023-05-09T05:48:55;99756.00;;;12.67;50.62
35655;BME280;21773;50.010;19.972;2023-05-09T05:52:00;99749.56;;;12.68;50.56
35655;BME280;21773;50.010;19.972;2023-05-09T05:55:05;99753.09;;;12.75;50.29
35655;BME280;21773;50.010;19.972;2023-05-09T05:58:08;99757.38;;;12.89;50.05
35655;BME280;21773;50.010;19.972;2023-05-09T06:01:12;99751.06;;;13.02;50.36
35655;BME280;21773;50.010;19.972;2023-05-09T06:04:18;99742.69;;;13.17;49.83
35655;BME280;21773;50.010;19.972;2023-05-09T06:07:23;99740.28;;;13.33;49.82
35655;BME280;21773;50.010;19.972;2023-05-09T06:10:26;99745.22;;;13.43;49.00
35655;BME280;21773;50.010;19.972;2023-05-09T06:13:29;99755.59;;;13.46;49.11
35655;BME280;21773;50.010;19.972;2023-05-09T06:16:37;99748.69;;;13.50;49.10
35655;BME280;21773;50.010;19.972;2023-05-09T06:19:42;99747.16;;;13.61;49.00
35655;BME280;21773;50.010;19.972;2023-05-09T06:22:46;99735.38;;;13.73;48.57
35655;BME280;21773;50.010;19.972;2023-05-09T06:25:50;99737.88;;;13.75;48.85
35655;BME280;21773;50.010;19.972;2023-05-09T06:28:53;99737.91;;;13.93;48.92
35655;BME280;21773;50.010;19.972;2023-05-09T06:31:57;99744.13;;;14.18;48.47
35655;BME280;21773;50.010;19.972;2023-05-09T06:35:00;99739.50;;;14.25;47.60
35655;BME280;21773;50.010;19.972;2023-05-09T06:38:05;99741.19;;;14.45;47.35
35655;BME280;21773;50.010;19.972;2023-05-09T06:41:09;99728.13;;;14.71;47.91
35655;BME280;21773;50.010;19.972;2023-05-09T06:44:12;99727.91;;;15.03;47.08
35655;BME280;21773;50.010;19.972;2023-05-09T06:47:16;99715.94;;;15.22;46.36
35655;BME280;21773;50.010;19.972;2023-05-09T06:50:19;99726.59;;;15.53;45.45
35655;BME280;21773;50.010;19.972;2023-05-09T06:53:24;99728.34;;;15.59;44.84
35655;BME280;21773;50.010;19.972;2023-05-09T06:56:27;99725.06;;;15.57;44.79
35655;BME280;21773;50.010;19.972;2023-05-09T06:59:30;99718.91;;;15.74;44.62
35655;BME280;21773;50.010;19.972;2023-05-09T07:02:34;99716.31;;;15.79;44.02
35655;BME280;21773;50.010;19.972;2023-05-09T07:05:38;99716.56;;;15.89;43.87
35655;BME280;21773;50.010;19.972;2023-05-09T07:08:42;99719.41;;;16.17;43.33
35655;BME280;21773;50.010;19.972;2023-05-09T07:11:45;99720.22;;;16.29;43.37
35655;BME280;21773;50.010;19.972;2023-05-09T07:14:49;99718.81;;;15.80;42.73
35655;BME280;21773;50.010;19.972;2023-05-09T07:17:52;99704.34;;;16.38;43.49
35655;BME280;21773;50.010;19.972;2023-05-09T07:20:56;99705.06;;;16.33;42.42
35655;BME280;21773;50.010;19.972;2023-05-09T07:24:00;99708.72;;;16.51;42.06
35655;BME280;21773;50.010;19.972;2023-05-09T07:27:04;99693.28;;;16.16;41.49
35655;BME280;21773;50.010;19.972;2023-05-09T07:30:08;99696.31;;;16.08;41.82
35655;BME280;21773;50.010;19.972;2023-05-09T07:33:11;99683.88;;;16.35;41.04
35655;BME280;21773;50.010;19.972;2023-05-09T07:36:15;99692.66;;;16.26;41.57
35655;BME280;21773;50.010;19.972;2023-05-09T07:39:19;99670.28;;;16.35;40.32
35655;BME280;21773;50.010;19.972;2023-05-09T07:42:23;99676.88;;;16.39;40.19
35655;BME280;21773;50.010;19.972;2023-05-09T07:45:26;99682.41;;;16.68;39.67
35655;BME280;21773;50.010;19.972;2023-05-09T07:48:29;99688.09;;;16.55;39.36
35655;BME280;21773;50.010;19.972;2023-05-09T07:51:33;99685.03;;;16.63;39.09
35655;BME280;21773;50.010;19.972;2023-05-09T07:54:37;99666.88;;;16.80;39.08
35655;BME280;21773;50.010;19.972;2023-05-09T07:57:41;99674.84;;;16.70;38.01
35655;BME280;21773;50.010;19.972;2023-05-09T08:00:44;99665.97;;;17.19;39.54
35655;BME280;21773;50.010;19.972;2023-05-09T08:03:48;99668.78;;;17.58;38.18
35655;BME280;21773;50.010;19.972;2023-05-09T08:06:51;99656.06;;;17.97;37.05
35655;BME280;21773;50.010;19.972;2023-05-09T08:09:56;99656.06;;;17.80;37.31
35655;BME280;21773;50.010;19.972;2023-05-09T08:13:00;99647.72;;;17.70;37.77
35655;BME280;21773;50.010;19.972;2023-05-09T08:16:03;99640.38;;;17.54;36.93
35655;BME280;21773;50.010;19.972;2023-05-09T08:19:07;99647.41;;;17.66;36.90
35655;BME280;21773;50.010;19.972;2023-05-09T08:22:15;99640.44;;;17.75;37.71
35655;BME280;21773;50.010;19.972;2023-05-09T08:25:20;99642.69;;;17.62;35.98
35655;BME280;21773;50.010;19.972;2023-05-09T08:28:23;99642.09;;;17.93;36.63
35655;BME280;21773;50.010;19.972;2023-05-09T08:31:29;99643.66;;;17.89;35.77
35655;BME280;21773;50.010;19.972;2023-05-09T08:34:33;99650.53;;;17.42;36.28
35655;BME280;21773;50.010;19.972;2023-05-09T08:37:37;99638.13;;;17.17;36.68
35655;BME280;21773;50.010;19.972;2023-05-09T08:40:42;99631.59;;;17.85;36.38
35655;BME280;21773;50.010;19.972;2023-05-09T08:43:45;99620.88;;;17.79;34.99
35655;BME280;21773;50.010;19.972;2023-05-09T08:46:51;99629.31;;;17.99;35.16
35655;BME280;21773;50.010;19.972;2023-05-09T08:49:55;99618.72;;;17.81;34.66
35655;BME280;21773;50.010;19.972;2023-05-09T08:52:58;99625.72;;;18.15;35.37
35655;BME280;21773;50.010;19.972;2023-05-09T08:56:04;99615.47;;;18.22;34.42
35655;BME280;21773;50.010;19.972;2023-05-09T08:59:08;99614.88;;;18.42;34.64
35655;BME280;21773;50.010;19.972;2023-05-09T09:02:13;99617.97;;;18.72;33.83
35655;BME280;21773;50.010;19.972;2023-05-09T09:05:17;99616.00;;;19.21;33.29
35655;BME280;21773;50.010;19.972;2023-05-09T09:08:40;99622.28;;;19.22;32.70
35655;BME280;21773;50.010;19.972;2023-05-09T09:11:46;99623.03;;;18.85;32.29
35655;BME280;21773;50.010;19.972;2023-05-09T09:14:53;99616.22;;;19.15;32.31
35655;BME280;21773;50.010;19.972;2023-05-09T09:17:58;99620.34;;;19.17;31.51
35655;BME280;21773;50.010;19.972;2023-05-09T09:21:05;99606.22;;;19.25;32.92
35655;BME280;21773;50.010;19.972;2023-05-09T09:24:11;99601.59;;;19.63;32.19
35655;BME280;21773;50.010;19.972;2023-05-09T09:27:17;99608.50;;;19.75;32.08
35655;BME280;21773;50.010;19.972;2023-05-09T09:30:23;99599.31;;;19.50;31.65
35655;BME280;21773;50.010;19.972;2023-05-09T09:33:28;99599.06;;;19.56;32.22
35655;BME280;21773;50.010;19.972;2023-05-09T09:36:31;99599.72;;;19.68;31.29
35655;BME280;21773;50.010;19.972;2023-05-09T09:39:35;99589.25;;;20.07;31.84
35655;BME280;21773;50.010;19.972;2023-05-09T09:42:43;99589.91;;;19.77;31.45
35655;BME280;21773;50.010;19.972;2023-05-09T09:45:48;99591.78;;;20.24;31.38
35655;BME280;21773;50.010;19.972;2023-05-09T09:48:52;99593.16;;;19.74;31.36
35655;BME280;21773;50.010;19.972;2023-05-09T09:51:58;99592.53;;;20.04;31.70
35655;BME280;21773;50.010;19.972;2023-05-09T09:55:02;99589.69;;;20.36;31.29
35655;BME280;21773;50.010;19.972;2023-05-09T09:58:16;99576.69;;;21.04;31.22
35655;BME280;21773;50.010;19.972;2023-05-09T10:01:21;99578.31;;;21.55;30.22
35655;BME280;21773;50.010;19.972;2023-05-09T10:04:27;99593.41;;;21.07;30.03
35655;BME280;21773;50.010;19.972;2023-05-09T10:07:32;99590.94;;;21.01;29.99
35655;BME280;21773;50.010;19.972;2023-05-09T10:10:36;99582.13;;;20.89;30.21
35655;BME280;21773;50.010;19.972;2023-05-09T10:13:42;99575.63;;;21.35;30.32
35655;BME280;21773;50.010;19.972;2023-05-09T10:16:47;99577.25;;;21.26;30.07
35655;BME280;21773;50.010;19.972;2023-05-09T10:19:51;99571.50;;;21.17;30.62
35655;BME280;21773;50.010;19.972;2023-05-09T10:22:56;99572.88;;;21.15;29.53
35655;BME280;21773;50.010;19.972;2023-05-09T10:26:05;99574.50;;;21.26;29.86
35655;BME280;21773;50.010;19.972;2023-05-09T10:29:15;99563.81;;;21.30;28.73
35655;BME280;21773;50.010;19.972;2023-05-09T10:32:28;99580.81;;;21.42;29.53
35655;BME280;21773;50.010;19.972;2023-05-09T10:35:39;99573.41;;;21.52;29.91
35655;BME280;21773;50.010;19.972;2023-05-09T10:38:42;99564.88;;;21.64;29.97
35655;BME280;21773;50.010;19.972;2023-05-09T10:41:46;99552.78;;;21.60;29.50
35655;BME280;21773;50.010;19.972;2023-05-09T10:44:53;99548.66;;;21.73;28.96
35655;BME280;21773;50.010;19.972;2023-05-09T10:47:56;99549.44;;;21.98;29.30
35655;BME280;21773;50.010;19.972;2023-05-09T10:51:01;99537.09;;;22.50;29.21
35655;BME280;21773;50.010;19.972;2023-05-09T10:54:12;99526.56;;;22.72;28.48
35655;BME280;21773;50.010;19.972;2023-05-09T10:57:17;99542.75;;;22.74;28.12
35655;BME280;21773;50.010;19.972;2023-05-09T11:00:24;99526.13;;;22.45;27.24
35655;BME280;21773;50.010;19.972;2023-05-09T11:03:51;99525.31;;;22.88;27.87
35655;BME280;21773;50.010;19.972;2023-05-09T11:06:55;99533.81;;;21.94;27.41
35655;BME280;21773;50.010;19.972;2023-05-09T11:10:06;99534.19;;;20.91;28.50
35655;BME280;21773;50.010;19.972;2023-05-09T11:13:11;99529.50;;;20.92;29.75
35655;BME280;21773;50.010;19.972;2023-05-09T11:16:15;99523.47;;;20.74;28.19
35655;BME280;21773;50.010;19.972;2023-05-09T11:19:33;99514.19;;;20.91;29.26
35655;BME280;21773;50.010;19.972;2023-05-09T11:22:38;99514.16;;;21.31;28.35
35655;BME280;21773;50.010;19.972;2023-05-09T11:25:44;99519.41;;;21.17;28.28
35655;BME280;21773;50.010;19.972;2023-05-09T11:28:52;99501.50;;;20.44;28.67
35655;BME280;21773;50.010;19.972;2023-05-09T11:32:05;99507.56;;;21.07;29.78
35655;BME280;21773;50.010;19.972;2023-05-09T11:35:10;99492.19;;;21.46;27.84
35655;BME280;21773;50.010;19.972;2023-05-09T11:38:20;99488.88;;;21.65;27.48
35655;BME280;21773;50.010;19.972;2023-05-09T11:41:24;99489.16;;;21.53;27.33
35655;BME280;21773;50.010;19.972;2023-05-09T11:44:27;99495.47;;;21.53;27.19
35655;BME280;21773;50.010;19.972;2023-05-09T11:47:34;99500.47;;;21.11;27.79
35655;BME280;21773;50.010;19.972;2023-05-09T11:50:39;99499.91;;;20.84;27.88
35655;BME280;21773;50.010;19.972;2023-05-09T11:53:43;99475.78;;;21.16;28.13
35655;BME280;21773;50.010;19.972;2023-05-09T11:56:48;99472.38;;;21.70;27.02
35655;BME280;21773;50.010;19.972;2023-05-09T11:59:51;99476.66;;;21.91;27.90
35655;BME280;21773;50.010;19.972;2023-05-09T12:02:56;99460.19;;;22.01;26.43
35655;BME280;21773;50.010;19.972;2023-05-09T12:06:00;99460.78;;;22.42;26.96
35655;BME280;21773;50.010;19.972;2023-05-09T12:09:03;99470.78;;;22.23;26.02
35655;BME280;21773;50.010;19.972;2023-05-09T12:12:08;99465.97;;;21.89;26.55
35655;BME280;21773;50.010;19.972;2023-05-09T12:15:13;99450.44;;;22.24;26.26
35655;BME280;21773;50.010;19.972;2023-05-09T12:18:19;99451.25;;;21.65;27.03
35655;BME280;21773;50.010;19.972;2023-05-09T12:21:23;99455.41;;;21.57;27.58
35655;BME280;21773;50.010;19.972;2023-05-09T12:24:27;99446.34;;;21.62;26.97
35655;BME280;21773;50.010;19.972;2023-05-09T12:27:31;99435.72;;;21.40;26.30
35655;BME280;21773;50.010;19.972;2023-05-09T12:30:35;99420.50;;;21.73;26.88
35655;BME280;21773;50.010;19.972;2023-05-09T12:33:40;99429.63;;;21.53;26.29
35655;BME280;21773;50.010;19.972;2023-05-09T12:36:43;99430.13;;;21.60;26.41
35655;BME280;21773;50.010;19.972;2023-05-09T12:40:02;99424.00;;;21.94;26.44
35655;BME280;21773;50.010;19.972;2023-05-09T12:43:06;99422.00;;;21.40;26.76
35655;BME280;21773;50.010;19.972;2023-05-09T12:46:09;99422.56;;;21.32;26.59
35655;BME280;21773;50.010;19.972;2023-05-09T12:49:20;99407.19;;;21.36;26.69
35655;BME280;21773;50.010;19.972;2023-05-09T12:52:24;99425.31;;;21.12;25.83
35655;BME280;21773;50.010;19.972;2023-05-09T12:55:27;99422.50;;;21.47;25.88
35655;BME280;21773;50.010;19.972;2023-05-09T12:58:31;99414.03;;;21.44;26.47
35655;BME280;21773;50.010;19.972;2023-05-09T13:01:35;99409.41;;;21.34;26.38
35655;BME280;21773;50.010;19.972;2023-05-09T13:04:39;99410.03;;;20.81;26.58
35655;BME280;21773;50.010;19.972;2023-05-09T13:07:44;99395.50;;;20.85;26.68
35655;BME280;21773;50.010;19.972;2023-05-09T13:10:48;99391.28;;;21.33;26.78
35655;BME280;21773;50.010;19.972;2023-05-09T13:14:05;99390.56;;;21.77;26.45
35655;BME280;21773;50.010;19.972;2023-05-09T13:17:08;99387.41;;;21.49;26.16
35655;BME280;21773;50.010;19.972;2023-05-09T13:20:13;99397.69;;;20.73;26.27
35655;BME280;21773;50.010;19.972;2023-05-09T13:23:17;99399.91;;;20.76;26.91
35655;BME280;21773;50.010;19.972;2023-05-09T13:26:21;99396.88;;;20.72;27.50
35655;BME280;21773;50.010;19.972;2023-05-09T13:29:24;99397.16;;;20.36;26.90
35655;BME280;21773;50.010;19.972;2023-05-09T13:32:27;99384.53;;;20.90;26.74
35655;BME280;21773;50.010;19.972;2023-05-09T13:35:32;99377.88;;;21.11;26.48
35655;BME280;21773;50.010;19.972;2023-05-09T13:38:36;99378.22;;;20.95;27.04
35655;BME280;21773;50.010;19.972;2023-05-09T13:41:41;99375.16;;;21.06;26.46
35655;BME280;21773;50.010;19.972;2023-05-09T13:44:45;99376.28;;;21.15;25.99
35655;BME280;21773;50.010;19.972;2023-05-09T13:47:48;99361.44;;;21.16;26.16
35655;BME280;21773;50.010;19.972;2023-05-09T13:50:53;99356.78;;;21.17;26.26
35655;BME280;21773;50.010;19.972;2023-05-09T13:53:58;99363.72;;;20.79;26.82
35655;BME280;21773;50.010;19.972;2023-05-09T13:57:01;99362.91;;;20.13;26.86
35655;BME280;21773;50.010;19.972;2023-05-09T14:00:06;99358.50;;;20.07;27.27
35655;BME280;21773;50.010;19.972;2023-05-09T14:03:13;99361.50;;;20.10;27.73
35655;BME280;21773;50.010;19.972;2023-05-09T14:06:17;99360.16;;;20.18;27.46
35655;BME280;21773;50.010;19.972;2023-05-09T14:09:21;99357.75;;;20.42;27.75
35655;BME280;21773;50.010;19.972;2023-05-09T14:12:29;99339.66;;;20.36;26.95
35655;BME280;21773;50.010;19.972;2023-05-09T14:15:34;99350.59;;;20.56;26.57
35655;BME280;21773;50.010;19.972;2023-05-09T14:18:39;99354.06;;;20.97;27.07
35655;BME280;21773;50.010;19.972;2023-05-09T14:21:44;99340.59;;;21.26;26.12
35655;BME280;21773;50.010;19.972;2023-05-09T14:24:48;99329.66;;;21.21;25.22
35655;BME280;21773;50.010;19.972;2023-05-09T14:27:59;99343.69;;;20.89;25.90
35655;BME280;21773;50.010;19.972;2023-05-09T14:31:08;99338.53;;;20.67;26.02
35655;BME280;21773;50.010;19.972;2023-05-09T14:34:11;99346.72;;;20.77;26.82
35655;BME280;21773;50.010;19.972;2023-05-09T14:37:16;99338.19;;;20.89;26.28
35655;BME280;21773;50.010;19.972;2023-05-09T14:40:19;99331.28;;;21.11;25.92
35655;BME280;21773;50.010;19.972;2023-05-09T14:43:23;99341.72;;;21.04;25.91
35655;BME280;21773;50.010;19.972;2023-05-09T14:46:26;99332.44;;;21.00;25.18
35655;BME280;21773;50.010;19.972;2023-05-09T14:49:29;99343.47;;;20.45;25.72
35655;BME280;21773;50.010;19.972;2023-05-09T14:52:34;99328.13;;;19.98;26.14
35655;BME280;21773;50.010;19.972;2023-05-09T14:55:38;99324.56;;;20.03;26.52
35655;BME280;21773;50.010;19.972;2023-05-09T14:58:41;99321.00;;;20.27;27.02
35655;BME280;21773;50.010;19.972;2023-05-09T15:01:44;99323.47;;;20.29;27.28
35655;BME280;21773;50.010;19.972;2023-05-09T15:04:48;99325.09;;;20.25;27.33
35655;BME280;21773;50.010;19.972;2023-05-09T15:07:53;99305.69;;;20.37;27.65
35655;BME280;21773;50.010;19.972;2023-05-09T15:10:56;99295.84;;;20.41;26.86
35655;BME280;21773;50.010;19.972;2023-05-09T15:14:00;99308.13;;;20.48;27.19
35655;BME280;21773;50.010;19.972;2023-05-09T15:17:04;99296.91;;;20.29;26.73
35655;BME280;21773;50.010;19.972;2023-05-09T15:20:08;99299.13;;;20.12;27.78
35655;BME280;21773;50.010;19.972;2023-05-09T15:23:12;99294.16;;;19.79;26.97
35655;BME280;21773;50.010;19.972;2023-05-09T15:26:16;99286.94;;;19.42;27.17
35655;BME280;21773;50.010;19.972;2023-05-09T15:29:19;99290.97;;;19.20;27.88
35655;BME280;21773;50.010;19.972;2023-05-09T15:32:23;99313.38;;;19.22;27.66
35655;BME280;21773;50.010;19.972;2023-05-09T15:35:27;99295.59;;;19.14;28.14
35655;BME280;21773;50.010;19.972;2023-05-09T15:38:31;99288.50;;;19.13;28.62
35655;BME280;21773;50.010;19.972;2023-05-09T15:41:35;99290.13;;;19.14;28.15
35655;BME280;21773;50.010;19.972;2023-05-09T15:44:38;99278.94;;;19.11;27.70
35655;BME280;21773;50.010;19.972;2023-05-09T15:47:42;99275.97;;;19.32;28.13
35655;BME280;21773;50.010;19.972;2023-05-09T15:50:45;99263.41;;;19.36;27.81
35655;BME280;21773;50.010;19.972;2023-05-09T15:53:50;99275.16;;;19.32;27.73
35655;BME280;21773;50.010;19.972;2023-05-09T15:56:53;99268.13;;;18.84;26.79
35655;BME280;21773;50.010;19.972;2023-05-09T15:59:57;99252.56;;;18.79;26.75
35655;BME280;21773;50.010;19.972;2023-05-09T16:03:00;99249.28;;;18.87;28.15
35655;BME280;21773;50.010;19.972;2023-05-09T16:06:04;99245.81;;;19.07;28.36
35655;BME280;21773;50.010;19.972;2023-05-09T16:09:10;99252.69;;;19.10;28.57
35655;BME280;21773;50.010;19.972;2023-05-09T16:12:14;99249.16;;;19.19;28.91